Time;durP1;ratioP1;P1;durP2;ratioP2;P2;SDS_P1;SDS_P2;PMS_P1;PMS_P2;Temp;Humidity;BMP_temperature;BMP_pressure;BME280_temperature;BME280_humidity;BME280_pressure;Samples;Min_cycle;Max_cycle;Signal;HPM_P1;HPM_P2
2021/12/23 00:00:41;;;;;;;;;;;20.50;30.30;;;;;;482248;246;1225;-46
2021/12/23 00:02:43;;;;;;;;;;;20.50;30.30;;;;;;482418;246;1194;-46
2021/12/23 00:04:44;;;;;;;;;;;20.50;30.30;;;;;;482748;246;1060;-46
2021/12/23 00:06:45;;;;;;;;;;;20.40;30.30;;;;;;482170;246;1168;-46
2021/12/23 00:08:47;;;;;;;;;;;20.50;30.30;;;;;;482212;246;1119;-47
2021/12/23 00:10:48;;;;;;;;;;;20.50;30.30;;;;;;482337;246;1063;-46
2021/12/23 00:12:49;;;;;;;;;;;20.50;30.30;;;;;;482172;246;1315;-46
2021/12/23 00:14:51;;;;;;;;;;;20.50;30.30;;;;;;482687;246;2121;-46
2021/12/23 00:17:16;;;;;;;;;;;20.50;30.40;;;;;;482167;246;2149;-47
2021/12/23 00:19:03;;;;;;;;;;;20.40;30.30;;;;;;480963;247;1334;-46
2021/12/23 00:23:26;;;;;;;;;;;20.50;30.30;;;;;;482309;247;1012;-46
2021/12/23 00:25:26;;;;;;;;;;;20.40;30.30;;;;;;482662;246;2079;-46
2021/12/23 00:27:28;;;;;;;;;;;20.40;30.30;;;;;;482263;246;1208;-46
2021/12/23 00:29:29;;;;;;;;;;;20.40;30.30;;;;;;482261;246;1063;-46
2021/12/23 00:31:30;;;;;;;;;;;20.40;30.30;;;;;;482210;246;1274;-46
2021/12/23 00:33:33;;;;;;;;;;;20.40;30.30;;;;;;482605;246;1134;-46
2021/12/23 00:35:33;;;;;;;;;;;20.40;30.40;;;;;;482466;247;2296;-45
2021/12/23 00:37:39;;;;;;;;;;;20.40;30.30;;;;;;482312;246;1229;-46
2021/12/23 00:39:37;;;;;;;;;;;20.40;30.30;;;;;;482068;247;2279;-46
2021/12/23 00:41:40;;;;;;;;;;;20.40;30.40;;;;;;482197;246;1669;-46
2021/12/23 00:43:39;;;;;;;;;;;20.40;30.40;;;;;;482331;246;2069;-46
2021/12/23 00:45:41;;;;;;;;;;;20.40;30.50;;;;;;482547;246;1227;-46
2021/12/23 00:47:42;;;;;;;;;;;20.30;30.40;;;;;;482332;246;1274;-46
2021/12/23 00:49:43;;;;;;;;;;;20.30;30.40;;;;;;482251;246;1068;-46
2021/12/23 00:51:45;;;;;;;;;;;20.30;30.40;;;;;;482173;246;1282;-46
2021/12/23 00:53:49;;;;;;;;;;;20.30;30.40;;;;;;482291;246;1343;-46
2021/12/23 00:55:49;;;;;;;;;;;20.30;30.40;;;;;;482056;247;2250;-46
2021/12/23 00:57:49;;;;;;;;;;;20.30;30.40;;;;;;482113;247;2052;-46
2021/12/23 00:59:50;;;;;;;;;;;20.30;30.40;;;;;;482510;246;960;-46
2021/12/23 01:01:52;;;;;;;;;;;20.30;30.50;;;;;;482255;246;1287;-46
2021/12/23 01:03:53;;;;;;;;;;;20.30;30.40;;;;;;482579;246;1277;-46
2021/12/23 01:05:54;;;;;;;;;;;20.30;30.40;;;;;;482278;246;1050;-46
2021/12/23 01:07:56;;;;;;;;;;;20.40;30.40;;;;;;482566;246;1121;-46
2021/12/23 01:09:57;;;;;;;;;;;20.30;30.30;;;;;;482392;246;1214;-46
2021/12/23 01:11:58;;;;;;;;;;;20.30;30.30;;;;;;482225;246;1205;-46
2021/12/23 01:14:03;;;;;;;;;;;20.30;30.30;;;;;;482338;246;1210;-46
2021/12/23 01:16:04;;;;;;;;;;;20.30;30.40;;;;;;482032;247;2267;-46
2021/12/23 01:18:08;;;;;;;;;;;20.30;30.30;;;;;;482585;247;2110;-46
2021/12/23 01:20:10;;;;;;;;;;;20.30;30.30;;;;;;482268;247;2459;-46
2021/12/23 01:22:09;;;;;;;;;;;20.30;30.30;;;;;;482079;246;2079;-46
2021/12/23 01:24:10;;;;;;;;;;;20.30;30.30;;;;;;482724;246;1093;-46
2021/12/23 01:26:13;;;;;;;;;;;20.30;30.40;;;;;;482443;237;1352;-46
2021/12/23 01:28:13;;;;;;;;;;;20.30;30.40;;;;;;482574;247;1852;-46
2021/12/23 01:30:14;;;;;;;;;;;20.30;30.40;;;;;;482286;246;1060;-46
2021/12/23 01:32:15;;;;;;;;;;;20.20;30.30;;;;;;482203;246;1222;-46
2021/12/23 01:34:17;;;;;;;;;;;20.20;30.40;;;;;;482488;246;1305;-46
2021/12/23 01:36:18;;;;;;;;;;;20.20;30.40;;;;;;482474;246;2196;-46
2021/12/23 01:38:19;;;;;;;;;;;20.20;30.40;;;;;;482548;246;968;-46
2021/12/23 01:40:21;;;;;;;;;;;20.20;30.30;;;;;;482692;246;1043;-46
2021/12/23 01:42:22;;;;;;;;;;;20.20;30.30;;;;;;482277;246;1200;-46
2021/12/23 01:44:23;;;;;;;;;;;20.20;30.40;;;;;;482574;246;1073;-46
2021/12/23 01:46:25;;;;;;;;;;;20.20;30.40;;;;;;482398;246;1318;-46
2021/12/23 01:48:26;;;;;;;;;;;20.20;30.30;;;;;;482537;246;1237;-46
2021/12/23 01:50:27;;;;;;;;;;;20.20;30.30;;;;;;482399;246;1070;-46
2021/12/23 01:52:29;;;;;;;;;;;20.20;30.40;;;;;;482236;246;1348;-46
2021/12/23 01:54:30;;;;;;;;;;;20.20;30.30;;;;;;482698;246;1201;-46
2021/12/23 01:56:31;;;;;;;;;;;20.30;30.30;;;;;;482378;246;1741;-46
2021/12/23 01:58:32;;;;;;;;;;;20.20;30.40;;;;;;482438;246;1136;-46
2021/12/23 02:00:34;;;;;;;;;;;20.20;30.30;;;;;;482248;246;1299;-46
2021/12/23 02:02:35;;;;;;;;;;;20.20;30.40;;;;;;482221;246;1287;-46
2021/12/23 02:04:36;;;;;;;;;;;20.20;30.30;;;;;;482691;246;1062;-46
2021/12/23 02:06:38;;;;;;;;;;;20.20;30.40;;;;;;482334;243;1692;-46
2021/12/23 02:08:39;;;;;;;;;;;20.20;30.30;;;;;;482335;246;1165;-46
2021/12/23 02:10:42;;;;;;;;;;;20.20;30.30;;;;;;482675;246;1182;-46
2021/12/23 02:12:42;;;;;;;;;;;20.20;30.40;;;;;;482160;246;2309;-46
2021/12/23 02:14:44;;;;;;;;;;;20.20;30.40;;;;;;482413;246;2122;-46
2021/12/23 02:16:45;;;;;;;;;;;20.20;30.40;;;;;;482410;246;1192;-46
2021/12/23 02:18:46;;;;;;;;;;;20.20;30.30;;;;;;482347;246;982;-46
2021/12/23 02:20:48;;;;;;;;;;;20.20;30.40;;;;;;482143;246;1259;-46
2021/12/23 02:22:49;;;;;;;;;;;20.20;30.40;;;;;;482207;246;1221;-46
2021/12/23 02:24:51;;;;;;;;;;;20.30;30.30;;;;;;482291;246;1064;-46
2021/12/23 02:26:52;;;;;;;;;;;20.50;30.00;;;;;;482178;246;1377;-46
2021/12/23 02:28:53;;;;;;;;;;;20.70;29.80;;;;;;482342;246;1152;-46
2021/12/23 02:30:55;;;;;;;;;;;20.90;29.60;;;;;;482470;246;1269;-46
2021/12/23 02:32:56;;;;;;;;;;;21.00;29.50;;;;;;482245;246;1246;-46
2021/12/23 02:34:57;;;;;;;;;;;21.10;29.40;;;;;;482233;246;2189;-46
2021/12/23 02:36:58;;;;;;;;;;;21.10;29.20;;;;;;482305;246;1241;-46
2021/12/23 02:39:00;;;;;;;;;;;21.20;29.20;;;;;;482260;246;996;-46
2021/12/23 02:41:01;;;;;;;;;;;21.20;29.10;;;;;;482704;246;1217;-46
2021/12/23 02:43:03;;;;;;;;;;;21.30;29.10;;;;;;482582;246;1194;-46
2021/12/23 02:45:09;;;;;;;;;;;21.30;29.00;;;;;;482566;246;1131;-46
2021/12/23 02:47:06;;;;;;;;;;;21.40;29.00;;;;;;482128;247;2133;-46
2021/12/23 02:49:07;;;;;;;;;;;21.40;28.90;;;;;;482698;246;1063;-46
2021/12/23 02:51:08;;;;;;;;;;;21.40;28.90;;;;;;482249;246;1172;-46
2021/12/23 02:53:10;;;;;;;;;;;21.50;28.90;;;;;;482713;246;1118;-46
2021/12/23 02:55:11;;;;;;;;;;;21.50;28.80;;;;;;482729;246;2122;-46
2021/12/23 02:57:12;;;;;;;;;;;21.50;28.80;;;;;;482218;246;1173;-47
2021/12/23 02:59:14;;;;;;;;;;;21.60;28.80;;;;;;482505;246;1087;-46
2021/12/23 03:01:15;;;;;;;;;;;21.60;28.70;;;;;;482666;246;1361;-47
2021/12/23 03:03:16;;;;;;;;;;;21.70;28.70;;;;;;482318;246;1239;-46
2021/12/23 03:05:18;;;;;;;;;;;21.70;28.70;;;;;;482308;246;1117;-46
2021/12/23 03:07:19;;;;;;;;;;;21.70;28.60;;;;;;482181;246;1227;-47
2021/12/23 03:09:20;;;;;;;;;;;21.70;28.60;;;;;;482285;246;1043;-46
2021/12/23 03:11:22;;;;;;;;;;;21.70;28.60;;;;;;482240;246;1205;-46
2021/12/23 03:13:23;;;;;;;;;;;21.80;28.60;;;;;;482525;246;1207;-47
2021/12/23 03:15:24;;;;;;;;;;;21.80;28.60;;;;;;482741;246;2110;-47
2021/12/23 03:17:26;;;;;;;;;;;21.80;28.60;;;;;;482214;246;1296;-47
2021/12/23 03:19:27;;;;;;;;;;;21.80;28.50;;;;;;482530;246;1091;-47
2021/12/23 03:21:28;;;;;;;;;;;21.80;28.50;;;;;;482251;246;1337;-47
2021/12/23 03:23:30;;;;;;;;;;;21.90;28.50;;;;;;482280;246;1180;-46
2021/12/23 03:25:31;;;;;;;;;;;21.80;28.50;;;;;;482687;246;1099;-46
2021/12/23 03:27:32;;;;;;;;;;;21.90;28.60;;;;;;482197;246;2176;-47
2021/12/23 03:29:33;;;;;;;;;;;21.80;28.50;;;;;;482366;246;1189;-46
2021/12/23 03:31:35;;;;;;;;;;;21.90;28.50;;;;;;482227;246;1448;-47
2021/12/23 03:33:36;;;;;;;;;;;21.90;28.50;;;;;;482304;246;1287;-47
2021/12/23 03:35:38;;;;;;;;;;;21.90;28.50;;;;;;482235;246;2184;-46
2021/12/23 03:37:39;;;;;;;;;;;21.90;28.40;;;;;;482300;246;1326;-46
2021/12/23 03:39:40;;;;;;;;;;;22.00;28.50;;;;;;482428;246;1035;-47
2021/12/23 03:41:42;;;;;;;;;;;22.00;28.40;;;;;;482161;246;1510;-47
2021/12/23 03:43:43;;;;;;;;;;;22.00;28.40;;;;;;482245;246;1223;-47
2021/12/23 03:45:44;;;;;;;;;;;22.00;28.40;;;;;;482283;246;1060;-47
2021/12/23 03:47:48;;;;;;;;;;;22.00;28.40;;;;;;482411;246;1141;-46
2021/12/23 03:49:47;;;;;;;;;;;22.00;28.40;;;;;;482062;247;1888;-46
2021/12/23 03:51:48;;;;;;;;;;;22.00;28.40;;;;;;482392;246;1368;-47
2021/12/23 03:53:50;;;;;;;;;;;22.00;28.40;;;;;;482562;246;1086;-47
2021/12/23 03:55:51;;;;;;;;;;;22.00;28.40;;;;;;482263;246;2381;-46
2021/12/23 03:57:52;;;;;;;;;;;22.00;28.40;;;;;;482239;246;1093;-47
2021/12/23 03:59:54;;;;;;;;;;;22.10;28.40;;;;;;482712;246;1068;-46
2021/12/23 04:01:55;;;;;;;;;;;22.10;28.40;;;;;;482349;246;1133;-47
2021/12/23 04:03:56;;;;;;;;;;;22.10;28.30;;;;;;482337;246;1219;-46
2021/12/23 04:05:57;;;;;;;;;;;22.10;28.40;;;;;;482288;246;1011;-47
2021/12/23 04:07:59;;;;;;;;;;;22.10;28.30;;;;;;482338;246;1331;-47
2021/12/23 04:10:00;;;;;;;;;;;22.10;28.30;;;;;;482250;246;1043;-46
2021/12/23 04:12:01;;;;;;;;;;;22.10;28.30;;;;;;482175;246;1277;-47
2021/12/23 04:14:03;;;;;;;;;;;22.10;28.30;;;;;;482256;246;1064;-46
2021/12/23 04:16:04;;;;;;;;;;;22.10;28.30;;;;;;482604;246;2117;-47
2021/12/23 04:18:05;;;;;;;;;;;22.10;28.30;;;;;;482331;246;1173;-46
2021/12/23 04:20:15;;;;;;;;;;;22.20;28.30;;;;;;482716;246;1189;-47
2021/12/23 04:22:11;;;;;;;;;;;22.20;28.30;;;;;;481849;247;2106;-46
2021/12/23 04:24:13;;;;;;;;;;;22.20;28.30;;;;;;482404;246;1085;-46
2021/12/23 04:26:14;;;;;;;;;;;22.20;28.20;;;;;;482329;246;1452;-46
2021/12/23 04:28:15;;;;;;;;;;;22.20;28.30;;;;;;482213;246;1478;-46
2021/12/23 04:30:17;;;;;;;;;;;22.20;28.20;;;;;;482431;246;1024;-47
2021/12/23 04:32:18;;;;;;;;;;;22.20;28.20;;;;;;482191;246;1337;-47
2021/12/23 04:34:19;;;;;;;;;;;22.20;28.20;;;;;;482345;246;1166;-46
2021/12/23 04:36:21;;;;;;;;;;;22.20;28.20;;;;;;482484;246;2122;-47
2021/12/23 04:38:22;;;;;;;;;;;22.20;28.20;;;;;;482241;246;1208;-47
2021/12/23 04:40:23;;;;;;;;;;;22.20;28.20;;;;;;482237;246;1257;-46
2021/12/23 04:42:25;;;;;;;;;;;22.20;28.20;;;;;;482150;246;1183;-47
2021/12/23 04:44:26;;;;;;;;;;;22.30;28.20;;;;;;482671;246;1181;-47
2021/12/23 04:46:27;;;;;;;;;;;22.20;28.20;;;;;;482341;246;1316;-47
2021/12/23 04:48:28;;;;;;;;;;;22.20;28.20;;;;;;482478;246;1178;-47
2021/12/23 04:50:30;;;;;;;;;;;22.30;28.20;;;;;;482274;246;1169;-46
2021/12/23 04:52:31;;;;;;;;;;;22.20;28.20;;;;;;482282;246;1218;-46
2021/12/23 04:54:33;;;;;;;;;;;22.20;28.20;;;;;;482604;246;1088;-47
2021/12/23 04:56:34;;;;;;;;;;;22.20;28.20;;;;;;482248;246;2196;-46
2021/12/23 04:58:35;;;;;;;;;;;22.20;28.20;;;;;;482212;246;1038;-47
2021/12/23 05:00:37;;;;;;;;;;;22.30;28.20;;;;;;482195;246;1257;-46
2021/12/23 05:02:38;;;;;;;;;;;22.30;28.10;;;;;;482268;246;1237;-46
2021/12/23 05:04:39;;;;;;;;;;;22.30;28.20;;;;;;482300;246;1206;-46
2021/12/23 05:06:41;;;;;;;;;;;22.30;28.10;;;;;;482252;246;1529;-46
2021/12/23 05:08:42;;;;;;;;;;;22.30;28.20;;;;;;482476;246;1066;-46
2021/12/23 05:10:44;;;;;;;;;;;22.30;28.10;;;;;;482558;246;1346;-46
2021/12/23 05:12:46;;;;;;;;;;;22.30;28.10;;;;;;482141;247;1149;-47
2021/12/23 05:14:46;;;;;;;;;;;22.30;28.10;;;;;;482151;247;2412;-47
2021/12/23 05:16:48;;;;;;;;;;;22.40;28.20;;;;;;482323;246;2196;-46
2021/12/23 05:18:49;;;;;;;;;;;22.30;28.10;;;;;;482449;246;1211;-46
2021/12/23 05:20:51;;;;;;;;;;;22.40;28.20;;;;;;482327;246;1313;-47
2021/12/23 05:22:52;;;;;;;;;;;22.40;28.20;;;;;;482122;246;1298;-47
2021/12/23 05:24:53;;;;;;;;;;;22.30;28.10;;;;;;482170;246;1348;-47
2021/12/23 05:26:54;;;;;;;;;;;22.30;28.10;;;;;;482018;246;1318;-46
2021/12/23 05:28:55;;;;;;;;;;;22.30;28.10;;;;;;482526;246;1122;-47
2021/12/23 05:30:57;;;;;;;;;;;22.40;28.10;;;;;;482122;246;1152;-47
2021/12/23 05:32:58;;;;;;;;;;;22.40;28.10;;;;;;482097;246;1142;-47
2021/12/23 05:34:59;;;;;;;;;;;22.40;28.10;;;;;;482206;246;1152;-47
2021/12/23 05:37:01;;;;;;;;;;;22.40;28.10;;;;;;482388;246;2192;-47
2021/12/23 05:39:02;;;;;;;;;;;22.40;28.20;;;;;;482466;246;1093;-46
2021/12/23 05:41:03;;;;;;;;;;;22.40;28.10;;;;;;482657;246;1072;-47
2021/12/23 05:43:05;;;;;;;;;;;22.40;28.10;;;;;;482172;246;1218;-46
2021/12/23 05:45:06;;;;;;;;;;;22.40;28.10;;;;;;482470;246;1083;-47
2021/12/23 05:47:07;;;;;;;;;;;22.40;28.10;;;;;;482064;246;1167;-46
2021/12/23 05:49:09;;;;;;;;;;;22.40;28.10;;;;;;482188;246;1230;-46
2021/12/23 05:51:10;;;;;;;;;;;22.40;28.10;;;;;;482156;246;1141;-46
2021/12/23 05:53:11;;;;;;;;;;;22.40;28.10;;;;;;482086;246;1281;-46
2021/12/23 05:55:13;;;;;;;;;;;22.50;28.10;;;;;;482285;246;1303;-47
2021/12/23 05:57:14;;;;;;;;;;;22.50;28.10;;;;;;482360;246;2122;-47
2021/12/23 05:59:15;;;;;;;;;;;22.40;28.00;;;;;;482211;246;1082;-46
2021/12/23 06:01:16;;;;;;;;;;;22.40;28.10;;;;;;482200;246;1130;-47
2021/12/23 06:03:18;;;;;;;;;;;22.40;28.10;;;;;;482273;246;1559;-46
2021/12/23 06:05:19;;;;;;;;;;;22.40;28.00;;;;;;482126;246;1130;-46
2021/12/23 06:07:21;;;;;;;;;;;22.40;28.10;;;;;;482240;246;1253;-46
2021/12/23 06:09:22;;;;;;;;;;;22.50;28.10;;;;;;482122;246;2494;-46
2021/12/23 06:11:23;;;;;;;;;;;22.50;28.10;;;;;;482160;243;1261;-47
2021/12/23 06:13:25;;;;;;;;;;;22.50;28.10;;;;;;482137;246;1267;-47
2021/12/23 06:15:26;;;;;;;;;;;22.50;28.10;;;;;;482240;246;1057;-47
2021/12/23 06:17:27;;;;;;;;;;;22.50;28.10;;;;;;482475;246;2201;-46
2021/12/23 06:19:29;;;;;;;;;;;22.50;28.00;;;;;;482208;246;1307;-47
2021/12/23 06:21:31;;;;;;;;;;;22.50;28.00;;;;;;482220;246;1320;-47
2021/12/23 06:23:31;;;;;;;;;;;22.50;28.00;;;;;;482115;247;2310;-47
2021/12/23 06:25:33;;;;;;;;;;;22.50;28.00;;;;;;482435;246;1066;-47
2021/12/23 06:27:34;;;;;;;;;;;22.50;28.00;;;;;;482086;246;1520;-47
2021/12/23 06:29:35;;;;;;;;;;;22.50;28.00;;;;;;482088;246;1241;-47
2021/12/23 06:31:37;;;;;;;;;;;22.50;28.10;;;;;;482260;246;1327;-47
2021/12/23 06:33:38;;;;;;;;;;;22.50;28.00;;;;;;482349;246;1152;-47
2021/12/23 06:35:39;;;;;;;;;;;22.50;28.00;;;;;;482164;246;1256;-47
2021/12/23 06:37:41;;;;;;;;;;;22.50;28.10;;;;;;482344;246;2134;-47
2021/12/23 06:39:44;;;;;;;;;;;22.50;28.00;;;;;;482531;246;1064;-47
2021/12/23 06:41:43;;;;;;;;;;;22.50;28.00;;;;;;481944;247;2597;-46
2021/12/23 06:43:44;;;;;;;;;;;22.50;28.00;;;;;;482123;246;1267;-47
2021/12/23 06:45:46;;;;;;;;;;;22.50;28.00;;;;;;482062;246;1261;-47
2021/12/23 06:47:47;;;;;;;;;;;22.50;28.00;;;;;;482333;246;1149;-47
2021/12/23 06:49:48;;;;;;;;;;;22.50;28.00;;;;;;482338;246;1125;-47
2021/12/23 06:51:50;;;;;;;;;;;22.50;28.00;;;;;;482192;246;1353;-47
2021/12/23 06:53:52;;;;;;;;;;;22.50;28.00;;;;;;482193;246;1219;-46
2021/12/23 06:55:54;;;;;;;;;;;22.50;28.10;;;;;;482407;246;1534;-47
2021/12/23 06:57:56;;;;;;;;;;;22.40;28.10;;;;;;481954;247;2200;-47
2021/12/23 06:59:56;;;;;;;;;;;22.20;28.30;;;;;;482066;247;1988;-46
2021/12/23 07:01:57;;;;;;;;;;;22.00;28.60;;;;;;482012;246;1637;-46
2021/12/23 07:04:06;;;;;;;;;;;21.80;28.70;;;;;;482137;246;1071;-47
2021/12/23 07:06:07;;;;;;;;;;;21.70;28.90;;;;;;481963;247;2316;-46
2021/12/23 07:08:10;;;;;;;;;;;21.60;29.00;;;;;;482007;246;1538;-46
2021/12/23 07:10:08;;;;;;;;;;;21.40;29.10;;;;;;481895;247;2199;-46
2021/12/23 07:12:09;;;;;;;;;;;21.40;29.20;;;;;;482030;246;1268;-47
2021/12/23 07:14:10;;;;;;;;;;;21.30;29.30;;;;;;482168;246;1254;-46
2021/12/23 07:16:12;;;;;;;;;;;21.30;29.30;;;;;;482066;246;1467;-46
2021/12/23 07:18:13;;;;;;;;;;;21.30;29.30;;;;;;482502;246;2121;-46
2021/12/23 07:20:14;;;;;;;;;;;21.20;29.30;;;;;;482069;246;1218;-46
2021/12/23 07:22:16;;;;;;;;;;;21.20;29.40;;;;;;482033;246;1126;-46
2021/12/23 07:24:17;;;;;;;;;;;21.20;29.40;;;;;;481999;246;1063;-46
2021/12/23 07:26:18;;;;;;;;;;;21.10;29.50;;;;;;482041;246;1114;-46
2021/12/23 07:28:20;;;;;;;;;;;21.10;29.50;;;;;;482082;246;1331;-47
2021/12/23 07:30:21;;;;;;;;;;;21.10;29.50;;;;;;482045;246;1063;-46
2021/12/23 07:32:22;;;;;;;;;;;21.00;29.60;;;;;;482145;246;1351;-46
2021/12/23 07:34:23;;;;;;;;;;;21.00;29.60;;;;;;481964;246;1598;-46
2021/12/23 07:36:27;;;;;;;;;;;21.00;29.60;;;;;;482057;246;1564;-46
2021/12/23 07:38:26;;;;;;;;;;;21.00;29.60;;;;;;481934;247;2224;-46
2021/12/23 07:40:27;;;;;;;;;;;21.00;29.60;;;;;;482159;246;1034;-47
2021/12/23 07:42:31;;;;;;;;;;;20.90;29.70;;;;;;482004;246;1161;-46
2021/12/23 07:44:30;;;;;;;;;;;20.90;29.70;;;;;;481961;247;1876;-46
2021/12/23 07:46:31;;;;;;;;;;;20.90;29.70;;;;;;481978;240;1212;-46
2021/12/23 07:48:33;;;;;;;;;;;20.90;29.70;;;;;;482082;246;1060;-46
2021/12/23 07:50:34;;;;;;;;;;;20.80;29.70;;;;;;481973;246;1278;-46
2021/12/23 07:52:36;;;;;;;;;;;20.90;29.70;;;;;;481936;246;1290;-46
2021/12/23 07:54:37;;;;;;;;;;;20.90;29.70;;;;;;482282;246;1036;-46
2021/12/23 07:56:38;;;;;;;;;;;20.90;29.70;;;;;;481985;246;2117;-46
2021/12/23 07:58:40;;;;;;;;;;;20.90;29.70;;;;;;482165;246;1065;-46
2021/12/23 08:00:41;;;;;;;;;;;20.80;29.70;;;;;;482092;246;1224;-46
2021/12/23 08:02:42;;;;;;;;;;;20.80;29.70;;;;;;481950;246;1285;-46
2021/12/23 08:04:44;;;;;;;;;;;20.80;29.80;;;;;;482206;246;1257;-46
2021/12/23 08:06:51;;;;;;;;;;;20.80;29.80;;;;;;481812;246;1456;-46
2021/12/23 08:08:46;;;;;;;;;;;20.70;29.80;;;;;;481573;247;1410;-46
2021/12/23 08:10:50;;;;;;;;;;;20.80;29.80;;;;;;481986;246;1289;-46
2021/12/23 08:12:49;;;;;;;;;;;20.70;29.80;;;;;;481989;246;1988;-46
2021/12/23 08:14:51;;;;;;;;;;;20.70;29.80;;;;;;482037;246;1097;-46
2021/12/23 08:16:52;;;;;;;;;;;20.70;29.90;;;;;;481943;246;2209;-46
2021/12/23 08:18:53;;;;;;;;;;;20.70;29.80;;;;;;481916;246;1027;-46
2021/12/23 08:20:55;;;;;;;;;;;20.60;29.90;;;;;;482015;246;1251;-46
2021/12/23 08:22:56;;;;;;;;;;;20.60;29.80;;;;;;481893;246;1249;-46
2021/12/23 08:24:58;;;;;;;;;;;20.70;29.80;;;;;;482049;246;1091;-46
2021/12/23 08:26:59;;;;;;;;;;;20.70;29.80;;;;;;482146;246;1179;-46
2021/12/23 08:29:00;;;;;;;;;;;20.60;29.80;;;;;;482022;246;1039;-46
2021/12/23 08:31:02;;;;;;;;;;;20.70;29.80;;;;;;481973;246;1540;-46
2021/12/23 08:33:03;;;;;;;;;;;20.60;29.80;;;;;;481991;246;1337;-46
2021/12/23 08:35:04;;;;;;;;;;;20.70;29.80;;;;;;482001;246;1221;-46
2021/12/23 08:37:10;;;;;;;;;;;20.60;29.80;;;;;;481984;246;2125;-46
2021/12/23 08:39:07;;;;;;;;;;;20.60;29.80;;;;;;481702;247;2150;-46
2021/12/23 08:41:08;;;;;;;;;;;20.60;29.80;;;;;;481957;246;1184;-46
2021/12/23 08:43:10;;;;;;;;;;;20.60;29.90;;;;;;481974;246;1042;-46
2021/12/23 08:45:11;;;;;;;;;;;20.60;29.90;;;;;;481992;246;1026;-46
2021/12/23 08:47:13;;;;;;;;;;;20.50;29.90;;;;;;481756;246;1234;-46
2021/12/23 08:49:14;;;;;;;;;;;20.60;29.90;;;;;;481930;246;2019;-45
2021/12/23 08:51:15;;;;;;;;;;;20.60;29.80;;;;;;481940;246;1469;-46
2021/12/23 08:53:17;;;;;;;;;;;20.50;29.80;;;;;;481894;246;1250;-46
2021/12/23 08:55:18;;;;;;;;;;;20.60;29.90;;;;;;481987;246;1332;-46
2021/12/23 08:57:19;;;;;;;;;;;20.50;29.90;;;;;;481900;246;2213;-46
2021/12/23 08:59:20;;;;;;;;;;;20.50;29.90;;;;;;482010;246;1229;-46
2021/12/23 09:01:22;;;;;;;;;;;20.50;29.90;;;;;;481970;246;1278;-46
2021/12/23 09:03:23;;;;;;;;;;;20.50;29.90;;;;;;481815;246;1222;-46
2021/12/23 09:05:24;;;;;;;;;;;20.50;29.90;;;;;;482091;246;1267;-46
2021/12/23 09:07:26;;;;;;;;;;;20.50;29.90;;;;;;481878;246;1220;-46
2021/12/23 09:09:30;;;;;;;;;;;20.50;29.90;;;;;;482246;246;1220;-46
2021/12/23 09:11:28;;;;;;;;;;;20.50;29.90;;;;;;481830;247;1846;-46
2021/12/23 09:13:30;;;;;;;;;;;20.50;29.90;;;;;;482317;246;1005;-46
2021/12/23 09:15:31;;;;;;;;;;;20.50;29.90;;;;;;482017;246;1099;-46
2021/12/23 09:17:32;;;;;;;;;;;20.40;29.90;;;;;;481865;246;2180;-46
2021/12/23 09:19:34;;;;;;;;;;;20.50;29.90;;;;;;481961;246;1045;-46
2021/12/23 09:21:35;;;;;;;;;;;20.40;29.90;;;;;;482046;246;1326;-46
2021/12/23 09:23:37;;;;;;;;;;;20.40;30.00;;;;;;482025;246;1303;-46
2021/12/23 09:25:38;;;;;;;;;;;20.40;29.90;;;;;;482038;246;1083;-46
2021/12/23 09:27:51;;;;;;;;;;;20.40;29.90;;;;;;481837;246;1215;-46
2021/12/23 09:34:19;;;;;;;;;;;20.40;30.00;;;;;;481998;247;1156;-46
2021/12/23 09:36:21;;;;;;;;;;;20.40;29.90;;;;;;481696;246;1241;-46
2021/12/23 09:38:27;;;;;;;;;;;20.40;29.90;;;;;;481950;246;2188;-46
2021/12/23 09:40:25;;;;;;;;;;;20.40;30.00;;;;;;481805;247;2078;-46
2021/12/23 09:42:25;;;;;;;;;;;20.40;30.00;;;;;;482020;247;2151;-46
2021/12/23 09:44:28;;;;;;;;;;;20.40;30.00;;;;;;481976;247;1058;-46
2021/12/23 09:46:28;;;;;;;;;;;20.30;30.00;;;;;;481882;247;1430;-47
2021/12/23 09:48:29;;;;;;;;;;;20.30;30.00;;;;;;481994;246;1247;-46
2021/12/23 09:50:31;;;;;;;;;;;20.40;30.00;;;;;;481933;246;1183;-46
2021/12/23 09:52:32;;;;;;;;;;;20.40;30.00;;;;;;481840;246;1218;-46
2021/12/23 09:54:33;;;;;;;;;;;20.40;30.00;;;;;;481983;246;1072;-46
2021/12/23 09:56:34;;;;;;;;;;;20.40;30.00;;;;;;481865;246;1463;-46
2021/12/23 09:58:36;;;;;;;;;;;20.40;30.00;;;;;;481962;246;2184;-46
2021/12/23 10:00:37;;;;;;;;;;;20.40;30.00;;;;;;481928;246;1184;-46
2021/12/23 10:02:40;;;;;;;;;;;20.30;30.00;;;;;;482041;246;1237;-46
2021/12/23 10:04:40;;;;;;;;;;;20.30;30.00;;;;;;481868;246;1746;-46
2021/12/23 10:06:41;;;;;;;;;;;20.30;30.00;;;;;;481861;246;1265;-46
2021/12/23 10:08:43;;;;;;;;;;;20.30;30.00;;;;;;482078;246;1068;-46
2021/12/23 10:10:48;;;;;;;;;;;20.30;30.00;;;;;;481874;246;1342;-46
2021/12/23 10:31:45;;;;;;;;;;;20.30;30.00;;;;;;481825;247;1679;-46
2021/12/23 10:37:03;;;;;;;;;;;20.30;30.00;;;;;;481791;247;2232;-46
2021/12/23 10:38:09;;;;;;;;;;;20.20;30.00;;;;;;481839;247;2145;-45
2021/12/23 10:40:10;;;;;;;;;;;20.20;30.00;;;;;;481933;246;1033;-46
2021/12/23 10:42:11;;;;;;;;;;;20.20;30.00;;;;;;481830;246;1267;-46
2021/12/23 10:44:13;;;;;;;;;;;20.20;30.00;;;;;;481846;246;1260;-46
2021/12/23 10:46:14;;;;;;;;;;;20.20;30.00;;;;;;481793;246;1587;-46
2021/12/23 10:48:16;;;;;;;;;;;20.20;30.00;;;;;;481906;246;1309;-46
2021/12/23 10:50:17;;;;;;;;;;;20.20;30.00;;;;;;481896;247;2208;-46
2021/12/23 10:52:25;;;;;;;;;;;20.20;30.00;;;;;;481977;246;1577;-47
2021/12/23 10:57:57;;;;;;;;;;;20.20;30.00;;;;;;481522;247;2276;-46
2021/12/23 10:58:40;;;;;;;;;;;20.20;30.00;;;;;;482102;247;2169;-46
2021/12/23 11:00:41;;;;;;;;;;;20.10;30.00;;;;;;481997;246;1308;-46
2021/12/23 11:02:43;;;;;;;;;;;20.10;30.00;;;;;;481746;246;1330;-47
2021/12/23 11:04:44;;;;;;;;;;;20.20;30.10;;;;;;481902;246;1120;-45
2021/12/23 11:06:47;;;;;;;;;;;20.20;30.00;;;;;;481819;246;1411;-46
2021/12/23 11:08:53;;;;;;;;;;;20.20;30.00;;;;;;481921;247;2215;-46
2021/12/23 11:27:52;;;;;;;;;;;20.20;30.00;;;;;;482055;247;1204;-46
2021/12/23 11:37:04;;;;;;;;;;;20.20;30.00;;;;;;481899;247;1312;-46
2021/12/23 11:38:47;;;;;;;;;;;20.10;30.00;;;;;;480601;247;2188;-46
2021/12/23 11:40:52;;;;;;;;;;;20.20;30.00;;;;;;481488;247;2434;-46
2021/12/23 11:43:13;;;;;;;;;;;20.20;30.00;;;;;;481710;247;2022;-45
2021/12/23 11:45:01;;;;;;;;;;;20.20;30.00;;;;;;481216;247;2258;-46
2021/12/23 11:47:08;;;;;;;;;;;20.20;30.10;;;;;;481895;246;1513;-46
2021/12/23 11:49:07;;;;;;;;;;;20.20;30.00;;;;;;481716;247;1705;-46
2021/12/23 11:51:09;;;;;;;;;;;20.40;29.80;;;;;;481849;247;2208;-46
2021/12/23 11:53:08;;;;;;;;;;;20.60;29.60;;;;;;481983;246;2007;-46
2021/12/23 11:55:09;;;;;;;;;;;20.80;29.40;;;;;;482028;246;1030;-47
2021/12/23 11:57:11;;;;;;;;;;;21.00;29.20;;;;;;481983;246;1275;-46
2021/12/23 11:59:13;;;;;;;;;;;21.00;29.00;;;;;;482034;246;2188;-46
2021/12/23 12:01:13;;;;;;;;;;;21.10;28.90;;;;;;481985;246;2147;-46
2021/12/23 12:03:14;;;;;;;;;;;21.20;28.90;;;;;;482113;246;1154;-47
2021/12/23 12:05:16;;;;;;;;;;;21.30;28.80;;;;;;482031;246;1148;-46
2021/12/23 12:07:17;;;;;;;;;;;21.30;28.80;;;;;;481944;246;1180;-46
2021/12/23 12:09:18;;;;;;;;;;;21.40;28.70;;;;;;482205;246;1008;-46
2021/12/23 12:11:20;;;;;;;;;;;21.40;28.60;;;;;;481975;246;1524;-46
2021/12/23 12:13:21;;;;;;;;;;;21.50;28.60;;;;;;482017;246;1451;-47
2021/12/23 12:15:23;;;;;;;;;;;21.50;28.60;;;;;;482097;246;1129;-46
2021/12/23 12:17:24;;;;;;;;;;;21.60;28.50;;;;;;481863;246;1065;-46
2021/12/23 12:19:26;;;;;;;;;;;21.60;28.50;;;;;;482069;246;2189;-46
2021/12/23 12:21:28;;;;;;;;;;;21.60;28.50;;;;;;481898;246;1144;-47
2021/12/23 12:23:29;;;;;;;;;;;21.60;28.40;;;;;;481926;246;2065;-47
2021/12/23 12:25:30;;;;;;;;;;;21.70;28.50;;;;;;481986;246;1131;-46
2021/12/23 12:27:31;;;;;;;;;;;21.70;28.40;;;;;;482189;246;1204;-46
2021/12/23 12:29:32;;;;;;;;;;;21.70;28.40;;;;;;482049;246;1101;-46
2021/12/23 12:31:34;;;;;;;;;;;21.70;28.40;;;;;;481974;246;1311;-47
2021/12/23 12:33:35;;;;;;;;;;;21.70;28.40;;;;;;482075;246;1259;-47
2021/12/23 12:35:36;;;;;;;;;;;21.80;28.40;;;;;;481955;246;1287;-47
2021/12/23 12:37:38;;;;;;;;;;;21.80;28.30;;;;;;482225;246;1252;-46
2021/12/23 12:39:40;;;;;;;;;;;21.80;28.30;;;;;;482286;246;2192;-47
2021/12/23 12:41:41;;;;;;;;;;;21.80;28.30;;;;;;481902;247;2677;-46
2021/12/23 12:43:45;;;;;;;;;;;21.90;28.30;;;;;;481969;246;1165;-46
2021/12/23 12:45:43;;;;;;;;;;;21.90;28.30;;;;;;481959;247;2232;-47
2021/12/23 12:47:50;;;;;;;;;;;21.90;28.30;;;;;;481979;246;1218;-46
2021/12/23 12:49:48;;;;;;;;;;;21.90;28.20;;;;;;482037;247;1815;-46
2021/12/23 12:51:48;;;;;;;;;;;21.90;28.20;;;;;;481970;247;2382;-46